sensor_id;sensor_type;location;lat;lon;timestamp;pressure;altitude;pressure_sealevel;temperature;humidity
14273;BME280;7220;49.450;11.052;2023-06-22T00:02:04;98258.44;;;21.62;95.18
14273;BME280;7220;49.450;11.052;2023-06-22T00:06:04;98255.19;;;21.58;95.33
14273;BME280;7220;49.450;11.052;2023-06-22T00:10:05;98265.00;;;21.59;95.48
14273;BME280;7220;49.450;11.052;2023-06-22T00:14:06;98279.09;;;21.53;95.75
14273;BME280;7220;49.450;11.052;2023-06-22T00:18:07;98265.88;;;21.50;96.02
14273;BME280;7220;49.450;11.052;2023-06-22T00:22:07;98275.19;;;21.38;96.80
14273;BME280;7220;49.450;11.052;2023-06-22T00:26:07;98272.50;;;21.38;96.88
14273;BME280;7220;49.450;11.052;2023-06-22T00:30:08;98293.41;;;21.36;96.88
14273;BME280;7220;49.450;11.052;2023-06-22T00:34:08;98297.69;;;21.28;97.73
14273;BME280;7220;49.450;11.052;2023-06-22T00:38:09;98299.41;;;21.30;97.85
14273;BME280;7220;49.450;11.052;2023-06-22T00:42:10;98317.91;;;21.24;97.97
14273;BME280;7220;49.450;11.052;2023-06-22T00:46:10;98321.75;;;21.22;97.91
14273;BME280;7220;49.450;11.052;2023-06-22T00:50:15;98316.09;;;21.15;98.11
14273;BME280;7220;49.450;11.052;2023-06-22T00:54:18;98313.66;;;21.22;97.50
14273;BME280;7220;49.450;11.052;2023-06-22T00:58:24;98304.31;;;21.06;98.16
14273;BME280;7220;49.450;11.052;2023-06-22T01:02:25;98301.06;;;21.03;98.61
14273;BME280;7220;49.450;11.052;2023-06-22T01:06:30;98300.06;;;21.04;98.46
14273;BME280;7220;49.450;11.052;2023-06-22T01:10:50;98302.47;;;20.97;99.45
14273;BME280;7220;49.450;11.052;2023-06-22T01:15:04;98283.59;;;20.87;99.79
14273;BME280;7220;49.450;11.052;2023-06-22T01:23:56;98244.53;;;20.82;100.00
14273;BME280;7220;49.450;11.052;2023-06-22T01:28:54;98241.00;;;20.81;100.00
14273;BME280;7220;49.450;11.052;2023-06-22T01:32:36;98229.88;;;20.84;100.00
14273;BME280;7220;49.450;11.052;2023-06-22T01:36:38;98233.69;;;20.91;100.00
14273;BME280;7220;49.450;11.052;2023-06-22T01:40:39;98233.56;;;20.83;100.00
14273;BME280;7220;49.450;11.052;2023-06-22T01:44:40;98253.06;;;20.87;100.00
14273;BME280;7220;49.450;11.052;2023-06-22T01:48:40;98246.38;;;20.81;100.00
14273;BME280;7220;49.450;11.052;2023-06-22T01:52:41;98239.84;;;20.84;100.00
14273;BME280;7220;49.450;11.052;2023-06-22T01:56:41;98239.00;;;20.73;100.00
14273;BME280;7220;49.450;11.052;2023-06-22T02:00:53;98243.25;;;20.66;100.00
14273;BME280;7220;49.450;11.052;2023-06-22T02:05:16;98240.16;;;20.61;100.00
14273;BME280;7220;49.450;11.052;2023-06-22T02:09:19;98249.41;;;20.58;100.00
14273;BME280;7220;49.450;11.052;2023-06-22T02:13:23;98257.63;;;20.57;100.00
14273;BME280;7220;49.450;11.052;2023-06-22T02:17:26;98259.75;;;20.53;100.00
14273;BME280;7220;49.450;11.052;2023-06-22T02:21:26;98265.19;;;20.43;100.00
14273;BME280;7220;49.450;11.052;2023-06-22T02:25:26;98259.50;;;20.46;100.00
14273;BME280;7220;49.450;11.052;2023-06-22T02:29:27;98265.03;;;20.45;100.00
14273;BME280;7220;49.450;11.052;2023-06-22T02:33:27;98258.63;;;20.46;100.00
14273;BME280;7220;49.450;11.052;2023-06-22T02:37:28;98259.34;;;20.48;100.00
14273;BME280;7220;49.450;11.052;2023-06-22T02:41:29;98283.66;;;20.48;100.00
14273;BME280;7220;49.450;11.052;2023-06-22T02:45:30;98309.78;;;20.47;100.00
14273;BME280;7220;49.450;11.052;2023-06-22T02:49:30;98348.44;;;20.48;100.00
14273;BME280;7220;49.450;11.052;2023-06-22T02:53:30;98377.13;;;20.49;100.00
14273;BME280;7220;49.450;11.052;2023-06-22T02:57:30;98392.31;;;20.40;100.00
14273;BME280;7220;49.450;11.052;2023-06-22T03:01:31;98376.22;;;20.19;100.00
14273;BME280;7220;49.450;11.052;2023-06-22T03:05:37;98386.16;;;20.09;100.00
14273;BME280;7220;49.450;11.052;2023-06-22T03:09:40;98381.59;;;20.09;100.00
14273;BME280;7220;49.450;11.052;2023-06-22T03:13:42;98377.19;;;19.98;100.00
14273;BME280;7220;49.450;11.052;2023-06-22T03:17:42;98355.03;;;19.85;100.00
14273;BME280;7220;49.450;11.052;2023-06-22T03:21:42;98360.50;;;19.83;100.00
14273;BME280;7220;49.450;11.052;2023-06-22T03:25:43;98366.44;;;19.77;100.00
14273;BME280;7220;49.450;11.052;2023-06-22T03:29:46;98351.41;;;19.75;100.00
14273;BME280;7220;49.450;11.052;2023-06-22T03:33:46;98347.47;;;19.79;100.00
14273;BME280;7220;49.450;11.052;2023-06-22T03:37:46;98339.06;;;19.72;100.00
14273;BME280;7220;49.450;11.052;2023-06-22T03:41:46;98318.06;;;19.76;100.00
14273;BME280;7220;49.450;11.052;2023-06-22T03:45:47;98330.66;;;19.75;100.00
14273;BME280;7220;49.450;11.052;2023-06-22T03:49:47;98328.56;;;19.79;100.00
14273;BME280;7220;49.450;11.052;2023-06-22T03:53:47;98326.69;;;19.69;100.00
14273;BME280;7220;49.450;11.052;2023-06-22T03:57:48;98317.16;;;19.65;100.00
14273;BME280;7220;49.450;11.052;2023-06-22T04:01:48;98287.22;;;19.59;100.00
14273;BME280;7220;49.450;11.052;2023-06-22T04:05:48;98298.75;;;19.70;100.00
14273;BME280;7220;49.450;11.052;2023-06-22T04:09:49;98302.88;;;19.75;100.00
14273;BME280;7220;49.450;11.052;2023-06-22T04:13:49;98275.06;;;19.74;100.00
14273;BME280;7220;49.450;11.052;2023-06-22T04:17:51;98290.31;;;19.85;100.00
14273;BME280;7220;49.450;11.052;2023-06-22T04:21:51;98285.06;;;19.93;100.00
14273;BME280;7220;49.450;11.052;2023-06-22T04:25:52;98243.31;;;19.97;100.00
14273;BME280;7220;49.450;11.052;2023-06-22T04:29:52;98273.84;;;20.08;100.00
14273;BME280;7220;49.450;11.052;2023-06-22T04:33:52;98263.47;;;20.13;100.00
14273;BME280;7220;49.450;11.052;2023-06-22T04:37:55;98238.22;;;20.14;100.00
14273;BME280;7220;49.450;11.052;2023-06-22T04:41:56;98233.81;;;20.13;100.00
14273;BME280;7220;49.450;11.052;2023-06-22T04:46:00;98228.53;;;20.21;100.00
14273;BME280;7220;49.450;11.052;2023-06-22T04:50:03;98232.69;;;20.25;100.00
14273;BME280;7220;49.450;11.052;2023-06-22T04:54:06;98210.50;;;20.31;100.00
14273;BME280;7220;49.450;11.052;2023-06-22T04:58:07;98218.31;;;20.35;100.00
14273;BME280;7220;49.450;11.052;2023-06-22T05:02:07;98228.22;;;20.44;100.00
14273;BME280;7220;49.450;11.052;2023-06-22T05:06:08;98215.44;;;20.46;100.00
14273;BME280;7220;49.450;11.052;2023-06-22T05:10:10;98211.75;;;20.47;100.00
14273;BME280;7220;49.450;11.052;2023-06-22T05:14:12;98219.81;;;20.57;100.00
14273;BME280;7220;49.450;11.052;2023-06-22T05:18:13;98226.22;;;20.65;100.00
14273;BME280;7220;49.450;11.052;2023-06-22T05:22:14;98218.78;;;20.68;100.00
14273;BME280;7220;49.450;11.052;2023-06-22T05:26:15;98210.41;;;20.71;100.00
14273;BME280;7220;49.450;11.052;2023-06-22T05:30:15;98220.88;;;20.93;100.00
14273;BME280;7220;49.450;11.052;2023-06-22T05:34:16;98217.00;;;21.06;100.00
14273;BME280;7220;49.450;11.052;2023-06-22T05:38:16;98222.53;;;21.14;100.00
14273;BME280;7220;49.450;11.052;2023-06-22T05:42:17;98231.41;;;21.24;100.00
14273;BME280;7220;49.450;11.052;2023-06-22T05:46:18;98214.31;;;21.34;100.00
14273;BME280;7220;49.450;11.052;2023-06-22T05:50:19;98205.28;;;21.43;100.00
14273;BME280;7220;49.450;11.052;2023-06-22T05:54:19;98195.69;;;21.58;99.34
14273;BME280;7220;49.450;11.052;2023-06-22T05:58:19;98189.06;;;21.71;98.90
14273;BME280;7220;49.450;11.052;2023-06-22T06:02:20;98210.94;;;21.78;98.54
14273;BME280;7220;49.450;11.052;2023-06-22T06:06:20;98198.34;;;21.86;97.90
14273;BME280;7220;49.450;11.052;2023-06-22T06:10:21;98194.56;;;21.97;97.80
14273;BME280;7220;49.450;11.052;2023-06-22T06:14:21;98195.63;;;22.04;97.67
14273;BME280;7220;49.450;11.052;2023-06-22T06:18:22;98195.53;;;22.14;97.29
14273;BME280;7220;49.450;11.052;2023-06-22T06:22:22;98180.25;;;22.31;95.90
14273;BME280;7220;49.450;11.052;2023-06-22T06:26:23;98176.50;;;22.42;95.03
14273;BME280;7220;49.450;11.052;2023-06-22T06:30:28;98186.06;;;22.55;94.93
14273;BME280;7220;49.450;11.052;2023-06-22T06:34:28;98179.84;;;22.62;94.24
14273;BME280;7220;49.450;11.052;2023-06-22T06:38:30;98176.72;;;22.75;93.44
14273;BME280;7220;49.450;11.052;2023-06-22T06:42:30;98182.53;;;22.89;93.37
14273;BME280;7220;49.450;11.052;2023-06-22T06:46:31;98176.97;;;22.98;92.34
14273;BME280;7220;49.450;11.052;2023-06-22T06:50:31;98162.28;;;23.09;91.86
14273;BME280;7220;49.450;11.052;2023-06-22T06:54:32;98169.09;;;23.13;92.12
14273;BME280;7220;49.450;11.052;2023-06-22T06:58:32;98149.31;;;23.21;91.39
14273;BME280;7220;49.450;11.052;2023-06-22T07:02:32;98145.44;;;23.32;91.19
14273;BME280;7220;49.450;11.052;2023-06-22T07:06:33;98141.09;;;23.39;90.64
14273;BME280;7220;49.450;11.052;2023-06-22T07:10:33;98140.88;;;23.33;91.28
14273;BME280;7220;49.450;11.052;2023-06-22T07:14:34;98133.81;;;23.48;90.60
14273;BME280;7220;49.450;11.052;2023-06-22T07:18:34;98129.91;;;23.59;89.56
14273;BME280;7220;49.450;11.052;2023-06-22T07:22:35;98145.00;;;23.61;89.79
14273;BME280;7220;49.450;11.052;2023-06-22T07:26:36;98136.38;;;23.74;88.35
14273;BME280;7220;49.450;11.052;2023-06-22T07:30:36;98131.97;;;23.82;87.81
14273;BME280;7220;49.450;11.052;2023-06-22T07:34:36;98125.25;;;23.94;86.15
14273;BME280;7220;49.450;11.052;2023-06-22T07:38:36;98126.06;;;24.11;84.28
14273;BME280;7220;49.450;11.052;2023-06-22T07:42:37;98124.00;;;24.30;81.64
14273;BME280;7220;49.450;11.052;2023-06-22T07:46:37;98126.53;;;24.48;80.64
14273;BME280;7220;49.450;11.052;2023-06-22T07:50:37;98122.94;;;24.55;79.64
14273;BME280;7220;49.450;11.052;2023-06-22T07:54:38;98118.31;;;24.64;78.50
14273;BME280;7220;49.450;11.052;2023-06-22T07:58:38;98125.13;;;24.68;77.29
14273;BME280;7220;49.450;11.052;2023-06-22T08:02:39;98123.38;;;24.84;75.44
14273;BME280;7220;49.450;11.052;2023-06-22T08:06:41;98114.22;;;25.16;73.05
14273;BME280;7220;49.450;11.052;2023-06-22T08:10:42;98122.84;;;25.28;72.34
14273;BME280;7220;49.450;11.052;2023-06-22T08:14:42;98122.50;;;25.31;71.82
14273;BME280;7220;49.450;11.052;2023-06-22T08:18:46;98117.03;;;25.40;71.22
14273;BME280;7220;49.450;11.052;2023-06-22T08:22:47;98118.13;;;25.54;69.97
14273;BME280;7220;49.450;11.052;2023-06-22T08:26:47;98107.19;;;25.62;68.99
14273;BME280;7220;49.450;11.052;2023-06-22T08:30:47;98105.91;;;25.73;67.91
14273;BME280;7220;49.450;11.052;2023-06-22T08:34:47;98114.06;;;25.96;67.22
14273;BME280;7220;49.450;11.052;2023-06-22T08:38:48;98108.06;;;26.01;66.70
14273;BME280;7220;49.450;11.052;2023-06-22T08:42:51;98110.34;;;26.12;66.44
14273;BME280;7220;49.450;11.052;2023-06-22T08:46:51;98123.66;;;26.30;65.37
14273;BME280;7220;49.450;11.052;2023-06-22T08:50:51;98110.03;;;26.45;64.30
14273;BME280;7220;49.450;11.052;2023-06-22T08:54:52;98101.88;;;26.60;63.75
14273;BME280;7220;49.450;11.052;2023-06-22T08:58:52;98102.44;;;26.70;62.85
14273;BME280;7220;49.450;11.052;2023-06-22T09:02:52;98109.34;;;26.81;62.28
14273;BME280;7220;49.450;11.052;2023-06-22T09:06:53;98088.63;;;27.02;60.90
14273;BME280;7220;49.450;11.052;2023-06-22T09:10:53;98089.63;;;27.16;60.66
14273;BME280;7220;49.450;11.052;2023-06-22T09:14:53;98088.56;;;27.32;58.83
14273;BME280;7220;49.450;11.052;2023-06-22T09:18:54;98073.19;;;27.46;58.10
14273;BME280;7220;49.450;11.052;2023-06-22T13:19:03;97834.22;;;33.15;42.45
14273;BME280;7220;49.450;11.052;2023-06-22T13:23:04;97838.19;;;32.77;41.62
14273;BME280;7220;49.450;11.052;2023-06-22T13:27:04;97840.91;;;32.35;41.78
14273;BME280;7220;49.450;11.052;2023-06-22T13:31:05;97842.72;;;32.41;41.65
14273;BME280;7220;49.450;11.052;2023-06-22T13:35:05;97850.25;;;32.64;41.69
14273;BME280;7220;49.450;11.052;2023-06-22T13:39:06;97844.66;;;32.22;42.62
14273;BME280;7220;49.450;11.052;2023-06-22T13:43:06;97833.44;;;32.05;43.20
14273;BME280;7220;49.450;11.052;2023-06-22T13:47:07;97841.22;;;32.08;41.72
14273;BME280;7220;49.450;11.052;2023-06-22T13:51:07;97820.84;;;32.16;41.65
14273;BME280;7220;49.450;11.052;2023-06-22T13:55:08;97813.53;;;33.25;39.43
14273;BME280;7220;49.450;11.052;2023-06-22T13:59:09;97812.66;;;33.72;36.80
14273;BME280;7220;49.450;11.052;2023-06-22T14:03:10;97827.28;;;33.96;36.75
14273;BME280;7220;49.450;11.052;2023-06-22T14:07:11;97825.09;;;33.98;36.92
14273;BME280;7220;49.450;11.052;2023-06-22T14:11:11;97796.59;;;34.33;36.72
14273;BME280;7220;49.450;11.052;2023-06-22T14:15:11;97773.75;;;34.50;36.04
14273;BME280;7220;49.450;11.052;2023-06-22T14:19:12;97762.72;;;34.67;35.96
14273;BME280;7220;49.450;11.052;2023-06-22T14:23:12;97761.03;;;34.66;35.66
14273;BME280;7220;49.450;11.052;2023-06-22T14:27:12;97758.28;;;34.20;38.03
14273;BME280;7220;49.450;11.052;2023-06-22T14:31:14;97770.19;;;33.56;38.73
14273;BME280;7220;49.450;11.052;2023-06-22T14:35:15;97779.38;;;33.26;39.80
14273;BME280;7220;49.450;11.052;2023-06-22T14:39:15;97783.25;;;33.60;38.55
14273;BME280;7220;49.450;11.052;2023-06-22T14:43:15;97772.66;;;33.69;38.15
14273;BME280;7220;49.450;11.052;2023-06-22T14:47:15;97752.66;;;33.74;38.79
14273;BME280;7220;49.450;11.052;2023-06-22T14:51:18;97745.63;;;32.95;41.05
14273;BME280;7220;49.450;11.052;2023-06-22T14:55:19;97740.75;;;32.54;40.56
14273;BME280;7220;49.450;11.052;2023-06-22T14:59:19;97730.25;;;32.21;40.65
14273;BME280;7220;49.450;11.052;2023-06-22T15:03:19;97712.66;;;32.10;41.60
14273;BME280;7220;49.450;11.052;2023-06-22T15:07:25;97704.38;;;32.29;40.96
14273;BME280;7220;49.450;11.052;2023-06-22T15:11:25;97689.03;;;32.75;38.37
14273;BME280;7220;49.450;11.052;2023-06-22T15:15:26;97708.56;;;33.33;38.13
14273;BME280;7220;49.450;11.052;2023-06-22T15:19:26;97710.44;;;33.44;37.84
14273;BME280;7220;49.450;11.052;2023-06-22T15:23:27;97698.66;;;33.61;38.38
14273;BME280;7220;49.450;11.052;2023-06-22T15:27:29;97693.66;;;33.99;37.78
14273;BME280;7220;49.450;11.052;2023-06-22T15:31:29;97678.94;;;33.93;37.12
14273;BME280;7220;49.450;11.052;2023-06-22T15:35:29;97675.53;;;33.33;38.40
14273;BME280;7220;49.450;11.052;2023-06-22T15:39:30;97649.19;;;33.13;39.30
14273;BME280;7220;49.450;11.052;2023-06-22T15:43:30;97631.72;;;33.08;39.76
14273;BME280;7220;49.450;11.052;2023-06-22T15:47:30;97627.44;;;32.76;40.29
14273;BME280;7220;49.450;11.052;2023-06-22T15:51:31;97634.72;;;32.94;40.78
14273;BME280;7220;49.450;11.052;2023-06-22T15:55:31;97616.41;;;32.76;40.08
14273;BME280;7220;49.450;11.052;2023-06-22T15:59:31;97608.78;;;32.78;40.53
14273;BME280;7220;49.450;11.052;2023-06-22T16:03:32;97605.56;;;33.34;38.82
14273;BME280;7220;49.450;11.052;2023-06-22T16:07:32;97592.25;;;33.72;37.10
14273;BME280;7220;49.450;11.052;2023-06-22T16:11:32;97595.84;;;34.01;36.84
14273;BME280;7220;49.450;11.052;2023-06-22T16:15:33;97587.56;;;34.18;36.56
14273;BME280;7220;49.450;11.052;2023-06-22T16:19:33;97588.19;;;34.37;35.37
14273;BME280;7220;49.450;11.052;2023-06-22T16:23:33;97584.34;;;34.78;34.69
14273;BME280;7220;49.450;11.052;2023-06-22T16:27:34;97591.31;;;35.02;34.57
14273;BME280;7220;49.450;11.052;2023-06-22T16:31:34;97608.81;;;35.08;34.34
14273;BME280;7220;49.450;11.052;2023-06-22T16:35:36;97596.72;;;35.14;34.07
14273;BME280;7220;49.450;11.052;2023-06-22T16:39:40;97601.63;;;35.29;33.48
14273;BME280;7220;49.450;11.052;2023-06-22T16:43:41;97599.56;;;35.42;32.64
14273;BME280;7220;49.450;11.052;2023-06-22T16:47:42;97603.16;;;35.64;33.07
14273;BME280;7220;49.450;11.052;2023-06-22T16:51:42;97602.59;;;35.40;33.60
14273;BME280;7220;49.450;11.052;2023-06-22T16:55:43;97584.31;;;35.39;30.79
14273;BME280;7220;49.450;11.052;2023-06-22T16:59:43;97586.34;;;35.44;29.82
14273;BME280;7220;49.450;11.052;2023-06-22T17:03:48;97589.84;;;35.39;29.96
14273;BME280;7220;49.450;11.052;2023-06-22T17:07:58;97579.72;;;35.22;30.01
14273;BME280;7220;49.450;11.052;2023-06-22T17:12:00;97566.66;;;35.18;31.16
14273;BME280;7220;49.450;11.052;2023-06-22T17:16:01;97587.56;;;35.09;31.78
14273;BME280;7220;49.450;11.052;2023-06-22T17:20:03;97583.03;;;35.02;31.83
14273;BME280;7220;49.450;11.052;2023-06-22T17:24:03;97572.31;;;34.67;32.45
14273;BME280;7220;49.450;11.052;2023-06-22T17:28:04;97567.34;;;34.47;32.59
14273;BME280;7220;49.450;11.052;2023-06-22T17:32:05;97553.41;;;34.02;32.79
14273;BME280;7220;49.450;11.052;2023-06-22T17:36:10;97536.22;;;33.66;33.17
14273;BME280;7220;49.450;11.052;2023-06-22T17:40:14;97527.50;;;33.40;33.98
14273;BME280;7220;49.450;11.052;2023-06-22T17:44:32;97531.50;;;32.68;36.40
14273;BME280;7220;49.450;11.052;2023-06-22T17:48:33;97527.22;;;32.48;36.70
14273;BME280;7220;49.450;11.052;2023-06-22T17:52:33;97516.91;;;32.08;39.54
14273;BME280;7220;49.450;11.052;2023-06-22T17:56:34;97522.75;;;32.00;38.76
14273;BME280;7220;49.450;11.052;2023-06-22T18:00:35;97545.59;;;31.88;40.19
14273;BME280;7220;49.450;11.052;2023-06-22T18:04:37;97558.72;;;31.56;41.16
14273;BME280;7220;49.450;11.052;2023-06-22T18:08:37;97562.63;;;31.48;39.87
14273;BME280;7220;49.450;11.052;2023-06-22T18:12:38;97556.38;;;31.41;41.19
14273;BME280;7220;49.450;11.052;2023-06-22T18:16:40;97546.75;;;31.01;42.62
14273;BME280;7220;49.450;11.052;2023-06-22T18:20:42;97542.94;;;30.65;43.29
14273;BME280;7220;49.450;11.052;2023-06-22T18:24:43;97537.34;;;30.34;44.02
14273;BME280;7220;49.450;11.052;2023-06-22T18:28:44;97549.88;;;30.24;43.84
14273;BME280;7220;49.450;11.052;2023-06-22T18:32:45;97555.56;;;30.22;44.06
14273;BME280;7220;49.450;11.052;2023-06-22T18:36:49;97560.22;;;30.21;42.75
14273;BME280;7220;49.450;11.052;2023-06-22T18:40:51;97565.22;;;30.50;41.13
14273;BME280;7220;49.450;11.052;2023-06-22T18:44:52;97567.84;;;30.63;40.27
14273;BME280;7220;49.450;11.052;2023-06-22T18:49:01;97567.13;;;30.75;39.40
14273;BME280;7220;49.450;11.052;2023-06-22T18:53:03;97557.34;;;30.79;40.00
14273;BME280;7220;49.450;11.052;2023-06-22T18:57:17;97565.81;;;30.77;40.20
14273;BME280;7220;49.450;11.052;2023-06-22T19:01:22;97564.38;;;30.75;39.88
14273;BME280;7220;49.450;11.052;2023-06-22T19:05:42;97558.94;;;30.68;40.12
14273;BME280;7220;49.450;11.052;2023-06-22T19:14:22;97568.63;;;30.52;40.35
14273;BME280;7220;49.450;11.052;2023-06-22T19:18:24;97560.03;;;30.42;40.51
14273;BME280;7220;49.450;11.052;2023-06-22T19:23:03;97542.66;;;30.29;40.29
14273;BME280;7220;49.450;11.052;2023-06-22T19:27:03;97530.00;;;30.10;40.67
14273;BME280;7220;49.450;11.052;2023-06-22T19:31:04;97535.66;;;29.51;44.03
14273;BME280;7220;49.450;11.052;2023-06-22T19:35:07;97561.88;;;28.61;48.65
14273;BME280;7220;49.450;11.052;2023-06-22T19:39:07;97579.56;;;27.98;51.31
14273;BME280;7220;49.450;11.052;2023-06-22T19:43:08;97590.44;;;27.51;54.35
14273;BME280;7220;49.450;11.052;2023-06-22T19:47:08;97616.13;;;27.21;56.77
14273;BME280;7220;49.450;11.052;2023-06-22T19:51:09;97627.16;;;27.00;57.63
14273;BME280;7220;49.450;11.052;2023-06-22T19:55:11;97614.75;;;26.62;60.34
14273;BME280;7220;49.450;11.052;2023-06-22T19:59:14;97634.47;;;26.36;62.06
14273;BME280;7220;49.450;11.052;2023-06-22T20:03:28;97651.50;;;26.01;64.21
14273;BME280;7220;49.450;11.052;2023-06-22T20:07:40;97703.06;;;25.66;66.90
14273;BME280;7220;49.450;11.052;2023-06-22T20:11:41;97772.69;;;25.60;69.07
14273;BME280;7220;49.450;11.052;2023-06-22T20:15:45;97789.28;;;25.65;70.81
14273;BME280;7220;49.450;11.052;2023-06-22T20:19:53;97774.66;;;25.66;70.41
14273;BME280;7220;49.450;11.052;2023-06-22T20:23:53;97820.34;;;25.71;70.36
14273;BME280;7220;49.450;11.052;2023-06-22T20:27:54;97864.34;;;25.45;75.18
14273;BME280;7220;49.450;11.052;2023-06-22T20:36:06;97851.22;;;24.40;85.58
14273;BME280;7220;49.450;11.052;2023-06-22T20:40:10;97886.22;;;24.35;85.49
14273;BME280;7220;49.450;11.052;2023-06-22T20:44:11;97886.97;;;24.21;89.36
14273;BME280;7220;49.450;11.052;2023-06-22T20:48:11;97884.50;;;24.03;93.88
14273;BME280;7220;49.450;11.052;2023-06-22T20:52:12;97866.16;;;23.48;100.00
14273;BME280;7220;49.450;11.052;2023-06-22T20:56:12;97850.59;;;23.34;100.00
14273;BME280;7220;49.450;11.052;2023-06-22T21:00:13;97814.38;;;23.19;100.00
14273;BME280;7220;49.450;11.052;2023-06-22T21:04:13;97793.72;;;22.93;100.00
14273;BME280;7220;49.450;11.052;2023-06-22T21:08:13;97761.72;;;22.72;100.00
14273;BME280;7220;49.450;11.052;2023-06-22T21:12:14;97773.44;;;22.64;100.00
14273;BME280;7220;49.450;11.052;2023-06-22T21:16:14;97805.06;;;22.72;100.00
14273;BME280;7220;49.450;11.052;2023-06-22T21:20:15;97808.28;;;22.92;100.00
14273;BME280;7220;49.450;11.052;2023-06-22T21:24:15;97816.25;;;23.10;100.00
14273;BME280;7220;49.450;11.052;2023-06-22T21:28:16;97852.31;;;23.19;100.00
14273;BME280;7220;49.450;11.052;2023-06-22T21:32:19;97862.81;;;23.13;100.00
14273;BME280;7220;49.450;11.052;2023-06-22T21:36:19;97871.97;;;23.12;100.00
14273;BME280;7220;49.450;11.052;2023-06-22T21:40:20;97862.47;;;23.08;100.00
14273;BME280;7220;49.450;11.052;2023-06-22T21:44:20;97861.13;;;23.04;100.00
14273;BME280;7220;49.450;11.052;2023-06-22T21:48:20;97848.25;;;22.98;100.00
14273;BME280;7220;49.450;11.052;2023-06-22T21:52:21;97815.38;;;23.01;100.00
14273;BME280;7220;49.450;11.052;2023-06-22T21:56:21;97817.06;;;23.10;100.00
14273;BME280;7220;49.450;11.052;2023-06-22T22:00:21;97836.91;;;23.03;100.00
14273;BME280;7220;49.450;11.052;2023-06-22T22:04:22;97849.97;;;22.99;100.00
14273;BME280;7220;49.450;11.052;2023-06-22T22:08:22;97835.72;;;22.97;100.00
14273;BME280;7220;49.450;11.052;2023-06-22T22:12:25;97848.59;;;22.95;100.00
14273;BME280;7220;49.450;11.052;2023-06-22T22:16:26;97848.91;;;22.92;100.00
14273;BME280;7220;49.450;11.052;2023-06-22T22:20:26;97866.53;;;22.88;100.00
14273;BME280;7220;49.450;11.052;2023-06-22T22:24:26;97865.16;;;22.83;100.00
14273;BME280;7220;49.450;11.052;2023-06-22T22:28:27;97871.28;;;22.77;100.00
14273;BME280;7220;49.450;11.052;2023-06-22T22:32:27;97877.56;;;22.78;100.00
14273;BME280;7220;49.450;11.052;2023-06-22T22:36:27;97876.53;;;22.71;100.00
14273;BME280;7220;49.450;11.052;2023-06-22T22:40:28;97897.84;;;22.74;100.00
14273;BME280;7220;49.450;11.052;2023-06-22T22:44:28;97881.59;;;22.65;100.00
14273;BME280;7220;49.450;11.052;2023-06-22T22:48:28;97847.38;;;22.64;100.00
14273;BME280;7220;49.450;11.052;2023-06-22T22:52:31;97847.38;;;22.64;100.00
14273;BME280;7220;49.450;11.052;2023-06-22T22:56:31;97849.25;;;22.64;100.00
14273;BME280;7220;49.450;11.052;2023-06-22T23:00:32;97852.47;;;22.59;100.00
14273;BME280;7220;49.450;11.052;2023-06-22T23:04:32;97849.59;;;22.61;100.00
14273;BME280;7220;49.450;11.052;2023-06-22T23:08:32;97843.00;;;22.63;100.00
14273;BME280;7220;49.450;11.052;2023-06-22T23:12:33;97848.75;;;22.68;100.00
14273;BME280;7220;49.450;11.052;2023-06-22T23:16:33;97851.78;;;22.65;100.00
14273;BME280;7220;49.450;11.052;2023-06-22T23:20:34;97863.13;;;22.69;100.00
14273;BME280;7220;49.450;11.052;2023-06-22T23:24:35;97871.63;;;22.66;100.00
14273;BME280;7220;49.450;11.052;2023-06-22T23:28:36;97856.38;;;22.65;100.00
14273;BME280;7220;49.450;11.052;2023-06-22T23:32:36;97878.03;;;22.65;100.00
14273;BME280;7220;49.450;11.052;2023-06-22T23:36:36;97874.97;;;22.68;100.00
14273;BME280;7220;49.450;11.052;2023-06-22T23:40:38;97907.84;;;22.73;100.00
14273;BME280;7220;49.450;11.052;2023-06-22T23:44:39;97923.75;;;22.76;100.00
14273;BME280;7220;49.450;11.052;2023-06-22T23:48:39;97934.75;;;22.75;100.00
14273;BME280;7220;49.450;11.052;2023-06-22T23:52:43;97939.16;;;22.76;100.00
14273;BME280;7220;49.450;11.052;2023-06-22T23:56:51;97935.22;;;22.53;100.00
